Time;durP1;ratioP1;P1;durP2;ratioP2;P2;SDS_P1;SDS_P2;PMS_P1;PMS_P2;Temp;Humidity;BMP_temperature;BMP_pressure;BME280_temperature;BME280_humidity;BME280_pressure;Samples;Min_cycle;Max_cycle;Signal;HPM_P1;HPM_P2
2022/01/14 00:01:24;;;;;;;19.20;9.00;;;;;;;2.38;100.00;101626.94;5075370;28;20462;-71
2022/01/14 00:03:53;;;;;;;24.02;10.85;;;;;;;2.33;100.00;101612.94;5075532;28;20363;-71
2022/01/14 00:06:21;;;;;;;21.02;7.80;;;;;;;2.29;100.00;101602.41;5074863;28;20049;-71
2022/01/14 00:08:50;;;;;;;22.40;10.80;;;;;;;2.30;100.00;101604.16;5075420;28;20079;-69
2022/01/14 00:11:18;;;;;;;23.83;11.20;;;;;;;2.28;100.00;101603.28;5073764;28;20045;-70
2022/01/14 00:13:54;;;;;;;26.30;11.60;;;;;;;2.28;100.00;101597.16;5075221;28;20488;-70
2022/01/14 00:16:22;;;;;;;26.33;12.10;;;;;;;2.20;100.00;101596.31;5075057;28;20552;-70
2022/01/14 00:18:52;;;;;;;22.08;10.57;;;;;;;2.23;100.00;101584.03;5075278;28;20477;-69
2022/01/14 00:21:20;;;;;;;26.98;10.98;;;;;;;2.19;100.00;101578.75;5074626;28;20049;-68
2022/01/14 00:23:52;;;;;;;17.70;7.57;;;;;;;2.23;100.00;101580.50;5074825;28;20547;-69
2022/01/14 00:31:58;;;;;;;22.20;10.57;;;;;;;2.11;100.00;101575.28;5073915;28;20052;-69
2022/01/14 00:34:28;;;;;;;25.35;10.75;;;;;;;2.07;100.00;101574.44;5074742;28;20056;-69
2022/01/14 00:36:58;;;;;;;23.55;11.18;;;;;;;2.16;100.00;101574.41;5073796;28;20051;-69
2022/01/14 00:39:27;;;;;;;23.92;11.43;;;;;;;2.09;100.00;101569.16;5073529;28;20049;-68
2022/01/14 00:41:55;;;;;;;23.42;12.20;;;;;;;2.05;100.00;101576.19;5074867;28;20036;-69
2022/01/14 00:44:24;;;;;;;24.77;12.27;;;;;;;2.14;100.00;101580.56;5074141;28;20037;-68
2022/01/14 00:46:52;;;;;;;27.35;12.45;;;;;;;2.07;100.00;101574.44;5074452;28;20399;-69
2022/01/14 00:49:22;;;;;;;24.75;11.38;;;;;;;2.01;100.00;101579.72;5074341;28;20045;-68
2022/01/14 00:51:51;;;;;;;23.23;11.45;;;;;;;1.97;100.00;101575.34;5074233;28;20048;-69
2022/01/14 00:54:19;;;;;;;24.42;11.90;;;;;;;1.96;100.00;101570.97;5074164;28;20044;-69
2022/01/14 00:57:02;;;;;;;28.75;10.98;;;;;;;1.94;100.00;101571.00;5074597;28;20073;-68
2022/01/14 00:59:29;;;;;;;25.60;12.03;;;;;;;1.92;100.00;101567.47;5074241;28;20133;-69
2022/01/14 01:02:00;;;;;;;24.85;11.95;;;;;;;1.91;100.00;101567.47;5074185;28;20037;-70
2022/01/14 01:04:32;;;;;;;23.38;9.82;;;;;;;1.92;100.00;101559.56;5074162;28;20405;-71
2022/01/14 01:07:05;;;;;;;27.42;12.88;;;;;;;1.86;100.00;101564.88;5074772;28;20469;-69
2022/01/14 01:09:35;;;;;;;23.93;11.77;;;;;;;1.80;100.00;101561.38;5074122;28;20387;-70
2022/01/14 01:12:13;;;;;;;23.10;10.48;;;;;;;1.84;100.00;101550.84;5074280;28;20463;-69
2022/01/14 01:14:46;;;;;;;26.70;13.15;;;;;;;1.75;100.00;101557.91;5073923;28;20090;-69
2022/01/14 01:17:15;;;;;;;29.63;12.38;;;;;;;1.71;100.00;101560.53;5073566;28;20143;-70
2022/01/14 01:19:44;;;;;;;25.55;12.15;;;;;;;1.71;100.00;101555.25;5074213;28;20044;-70
2022/01/14 01:22:13;;;;;;;21.55;10.43;;;;;;;1.73;100.00;101550.88;5073842;28;20044;-77
2022/01/14 01:24:44;;;;;;;25.25;12.85;;;;;;;1.70;100.00;101548.25;5074140;28;20055;-71
2022/01/14 01:27:14;;;;;;;22.25;10.27;;;;;;;1.68;100.00;101554.41;5073800;28;20433;-78
2022/01/14 01:29:50;;;;;;;28.83;13.50;;;;;;;1.60;100.00;101551.78;5073768;28;20048;-72
2022/01/14 01:32:18;;;;;;;22.17;10.38;;;;;;;1.59;100.00;101544.78;5073508;28;20041;-71
2022/01/14 01:34:47;;;;;;;24.65;10.50;;;;;;;1.58;100.00;101548.28;5073656;28;20062;-71
2022/01/14 01:37:16;;;;;;;26.23;11.60;;;;;;;1.59;100.00;101550.03;5072313;28;20059;-71
2022/01/14 01:39:45;;;;;;;27.02;13.07;;;;;;;1.57;100.00;101541.28;5073443;28;20485;-71
2022/01/14 01:42:14;;;;;;;21.85;11.63;;;;;;;1.56;100.00;101534.28;5073150;28;20114;-76
2022/01/14 01:44:44;;;;;;;26.42;12.52;;;;;;;1.48;100.00;101533.41;5073629;28;20075;-72
2022/01/14 01:47:13;;;;;;;21.73;10.80;;;;;;;1.55;100.00;101535.16;5073172;28;20080;-71
2022/01/14 01:49:41;;;;;;;25.75;10.70;;;;;;;1.53;100.00;101531.63;5073661;28;20123;-71
2022/01/14 01:52:09;;;;;;;24.30;10.65;;;;;;;1.57;100.00;101530.78;5073485;28;20450;-71
2022/01/14 01:54:39;;;;;;;27.05;11.88;;;;;;;1.49;100.00;101529.91;5072809;28;20076;-69
2022/01/14 01:57:14;;;;;;;27.00;12.15;;;;;;;1.51;100.00;101529.91;5073506;28;20044;-69
2022/01/14 01:59:43;;;;;;;22.90;10.13;;;;;;;1.54;100.00;101522.00;5073569;28;20070;-69
2022/01/14 02:02:11;;;;;;;24.05;12.13;;;;;;;1.52;100.00;101522.00;5073195;28;20049;-70
2022/01/14 02:04:39;;;;;;;23.38;11.68;;;;;;;1.53;100.00;101507.97;5072430;28;20048;-71
2022/01/14 02:07:07;;;;;;;26.13;12.15;;;;;;;1.57;100.00;101515.00;5073372;28;20174;-71
2022/01/14 02:09:36;;;;;;;21.23;10.38;;;;;;;1.55;100.00;101508.88;5073008;28;20037;-70
2022/01/14 02:12:10;;;;;;;24.17;11.95;;;;;;;1.57;100.00;101509.72;5073265;28;20047;-71
2022/01/14 02:14:55;;;;;;;15.07;7.05;;;;;;;1.62;100.00;101512.34;5072975;28;20041;-71
2022/01/14 02:17:34;;;;;;;21.55;11.18;;;;;;;1.62;100.00;101497.41;5071760;28;20044;-72
2022/01/14 02:22:55;;;;;;;27.23;11.95;;;;;;;1.59;100.00;101492.19;5073057;28;20047;-71
2022/01/14 02:25:29;;;;;;;23.80;10.88;;;;;;;1.49;100.00;101479.94;5072551;28;20606;-71
2022/01/14 02:28:01;;;;;;;24.15;10.88;;;;;;;1.51;100.00;101485.19;5074930;28;20048;-71
2022/01/14 02:30:34;;;;;;;28.15;12.90;;;;;;;1.44;100.00;101472.06;5073486;28;20040;-70
2022/01/14 02:33:02;;;;;;;;;;;;;;;1.36;100.00;101478.25;5073540;28;20055;-71
2022/01/14 02:35:33;;;;;;;16.65;8.77;;;;;;;1.37;100.00;101458.97;5072610;28;20360;-72
2022/01/14 02:38:01;;;;;;;25.15;12.18;;;;;;;1.39;100.00;101465.09;5071823;28;20045;-72
2022/01/14 02:40:30;;;;;;;27.30;12.82;;;;;;;1.36;100.00;101460.72;5072710;28;20044;-71
2022/01/14 02:43:00;;;;;;;27.73;13.63;;;;;;;1.33;100.00;101470.34;5071666;28;20074;-70
2022/01/14 02:45:31;;;;;;;28.27;12.10;;;;;;;1.38;100.00;101451.06;5072728;28;20041;-70
2022/01/14 02:48:00;;;;;;;25.58;10.93;;;;;;;1.39;100.00;101451.94;5072830;28;20049;-71
2022/01/14 02:50:37;;;;;;;29.70;13.95;;;;;;;1.37;100.00;101454.59;5072594;28;20044;-70
2022/01/14 02:53:25;;;;;;;17.85;8.23;;;;;;;1.41;100.00;101450.19;5073018;28;20094;-70
2022/01/14 02:55:55;;;;;;;30.35;13.02;;;;;;;1.39;100.00;101457.19;5072543;28;20115;-71
2022/01/14 02:58:25;;;;;;;23.70;10.57;;;;;;;1.46;100.00;101453.69;5072509;28;20093;-71
2022/01/14 03:00:55;;;;;;;27.10;12.82;;;;;;;1.39;100.00;101457.19;5072640;28;20048;-70
2022/01/14 03:03:24;;;;;;;29.40;13.18;;;;;;;1.40;100.00;101444.03;5072184;28;20045;-71
2022/01/14 03:05:53;;;;;;;27.95;11.82;;;;;;;1.48;100.00;101451.91;5072740;28;20135;-71
2022/01/14 03:08:23;;;;;;;27.90;13.70;;;;;;;1.47;100.00;101434.38;5072102;28;20044;-70
2022/01/14 03:10:55;;;;;;;31.45;14.30;;;;;;;1.49;100.00;101432.63;5072473;28;20111;-70
2022/01/14 03:13:23;;;;;;;28.65;14.10;;;;;;;1.47;100.00;101434.38;5072400;28;20064;-70
2022/01/14 03:15:52;;;;;;;29.52;12.65;;;;;;;1.47;100.00;101418.59;5074703;28;20044;-71
2022/01/14 03:18:29;;;;;;;21.85;9.40;;;;;;;1.42;100.00;101415.09;5075776;28;20048;-76
2022/01/14 03:21:09;;;;;;;31.38;14.05;;;;;;;1.46;100.00;101416.88;5076096;28;20056;-71
2022/01/14 03:23:44;;;;;;;29.35;12.60;;;;;;;1.45;100.00;101417.75;5076105;28;20051;-71
2022/01/14 03:26:13;;;;;;;26.88;13.27;;;;;;;1.46;100.00;101405.47;5076070;28;20048;-71
2022/01/14 03:28:42;;;;;;;28.23;13.20;;;;;;;1.55;100.00;101414.19;5075908;28;20071;-71
2022/01/14 03:31:11;;;;;;;27.02;13.07;;;;;;;1.50;100.00;101412.44;5076154;28;20133;-71
2022/01/14 03:33:40;;;;;;;31.30;14.13;;;;;;;1.58;100.00;101418.56;5075403;28;20052;-71
2022/01/14 03:36:09;;;;;;;26.23;12.55;;;;;;;1.55;100.00;101398.41;5075964;28;20036;-71
2022/01/14 03:38:39;;;;;;;29.52;13.52;;;;;;;1.53;100.00;101405.41;5075394;28;20071;-71
2022/01/14 03:41:07;;;;;;;27.10;12.38;;;;;;;1.55;100.00;101389.66;5076190;28;20401;-70
2022/01/14 03:43:36;;;;;;;31.33;13.65;;;;;;;1.57;100.00;101388.75;5075352;28;20128;-71
2022/01/14 03:46:05;;;;;;;27.98;13.70;;;;;;;1.53;100.00;101392.25;5075929;28;20044;-71
2022/01/14 03:48:33;;;;;;;24.95;12.38;;;;;;;1.43;100.00;101398.44;5075543;28;20123;-71
2022/01/14 03:51:02;;;;;;;27.70;13.27;;;;;;;1.50;100.00;101399.31;5075757;28;20041;-70
2022/01/14 03:53:30;;;;;;;28.83;13.00;;;;;;;1.44;100.00;101392.31;5074088;28;20053;-70
2022/01/14 03:56:00;;;;;;;25.77;12.32;;;;;;;1.46;100.00;101380.06;5075344;28;20550;-71
2022/01/14 03:58:40;;;;;;;27.50;12.88;;;;;;;1.46;100.00;101389.69;5075196;28;20045;-71
2022/01/14 04:01:08;;;;;;;29.08;14.00;;;;;;;1.43;100.00;101391.44;5075639;28;20102;-70
2022/01/14 04:03:39;;;;;;;28.40;12.98;;;;;;;1.36;100.00;101384.47;5075040;28;20044;-71
2022/01/14 04:06:11;;;;;;;27.50;13.38;;;;;;;1.42;100.00;101383.56;5075695;28;20131;-69
2022/01/14 04:08:43;;;;;;;29.95;13.80;;;;;;;1.43;100.00;101374.78;5075284;28;20048;-68
2022/01/14 04:11:13;;;;;;;30.83;14.02;;;;;;;1.42;100.00;101367.78;5075514;28;20044;-68
2022/01/14 04:13:47;;;;;;;17.13;7.53;;;;;;;1.41;100.00;101356.41;5075163;28;20495;-69
2022/01/14 04:16:17;;;;;;;20.65;9.88;;;;;;;1.38;100.00;101345.03;5075474;28;20083;-68
2022/01/14 04:18:46;;;;;;;23.27;9.13;;;;;;;1.43;100.00;101349.38;5075090;28;20047;-69
2022/01/14 04:21:15;;;;;;;26.95;12.23;;;;;;;1.42;100.00;101341.50;5075385;28;20045;-70
2022/01/14 04:23:43;;;;;;;24.80;12.15;;;;;;;1.44;100.00;101339.72;5074861;28;20044;-69
2022/01/14 04:26:13;;;;;;;32.47;14.32;;;;;;;1.47;100.00;101342.34;5072837;28;20056;-70
2022/01/14 04:28:44;;;;;;;25.88;11.48;;;;;;;1.55;100.00;101353.72;5074888;28;20806;-69
2022/01/14 04:31:12;;;;;;;24.88;11.52;;;;;;;1.56;100.00;101339.69;5075134;28;20037;-69
2022/01/14 04:33:41;;;;;;;20.90;8.85;;;;;;;1.66;100.00;101346.63;5074608;28;20131;-69
2022/01/14 04:36:09;;;;;;;22.23;11.18;;;;;;;1.72;100.00;101340.44;5074507;28;20110;-69
2022/01/14 04:38:38;;;;;;;27.67;12.20;;;;;;;1.69;100.00;101336.06;5074610;28;20045;-70
2022/01/14 04:41:06;;;;;;;28.15;11.02;;;;;;;1.67;100.00;101335.22;5074529;28;20098;-71
2022/01/14 04:43:36;;;;;;;25.85;10.18;;;;;;;1.67;100.00;101331.72;5074465;28;20545;-71
2022/01/14 04:48:47;;;;;;;24.52;11.82;;;;;;;1.72;100.00;101317.63;5061664;28;20113;-71
2022/01/14 04:51:15;;;;;;;27.42;12.10;;;;;;;1.69;100.00;101320.28;5074328;28;20101;-70
2022/01/14 04:53:45;;;;;;;26.17;12.35;;;;;;;1.75;100.00;101318.53;5074230;28;20052;-70
2022/01/14 04:56:13;;;;;;;25.35;11.93;;;;;;;1.75;100.00;101322.03;5074643;28;20068;-71
2022/01/14 04:58:45;;;;;;;27.88;12.93;;;;;;;1.79;100.00;101320.22;5074208;28;20044;-68
2022/01/14 05:01:13;;;;;;;21.05;9.95;;;;;;;1.81;100.00;101300.03;5074496;28;20037;-71
2022/01/14 05:03:41;;;;;;;29.65;12.23;;;;;;;1.87;100.00;101313.16;5073804;28;20113;-69
2022/01/14 05:06:10;;;;;;;26.08;11.45;;;;;;;1.91;100.00;101312.25;5074295;28;20049;-70
2022/01/14 05:08:41;;;;;;;16.75;7.53;;;;;;;2.04;100.00;101299.88;5073963;28;20135;-69
2022/01/14 05:11:23;;;;;;;23.55;11.68;;;;;;;2.07;100.00;101305.97;5074046;28;20044;-69
2022/01/14 05:13:52;;;;;;;24.05;11.00;;;;;;;2.06;100.00;101304.22;5073851;28;20037;-69
2022/01/14 05:16:20;;;;;;;22.65;10.68;;;;;;;1.93;100.00;101303.47;5074070;28;20044;-68
2022/01/14 05:18:49;;;;;;;20.27;9.48;;;;;;;1.95;100.00;101299.06;5073477;28;20072;-70
2022/01/14 05:21:19;;;;;;;27.00;11.80;;;;;;;1.97;100.00;101309.56;5073885;28;20041;-69
2022/01/14 05:23:48;;;;;;;18.10;8.10;;;;;;;1.98;100.00;101303.41;5073384;28;20151;-70
2022/01/14 05:26:18;;;;;;;22.17;11.35;;;;;;;1.94;100.00;101306.97;5073858;28;20477;-70
2022/01/14 05:28:46;;;;;;;22.77;11.02;;;;;;;1.86;100.00;101314.06;5073344;28;20040;-70
2022/01/14 05:31:16;;;;;;;19.85;10.30;;;;;;;1.97;100.00;101312.19;5073655;28;20058;-69
2022/01/14 05:33:46;;;;;;;22.92;10.77;;;;;;;1.97;100.00;101313.06;5073250;28;20370;-69
2022/01/14 05:36:18;;;;;;;22.65;11.15;;;;;;;1.95;100.00;101304.31;5073694;28;20525;-69
2022/01/14 05:38:47;;;;;;;16.98;7.65;;;;;;;1.96;100.00;101305.19;5073229;28;20098;-69
2022/01/14 05:41:18;;;;;;;24.73;11.77;;;;;;;1.94;100.00;101304.34;5073337;28;20048;-70
2022/01/14 05:43:46;;;;;;;25.63;11.27;;;;;;;1.86;100.00;101301.75;5073371;28;20072;-69
2022/01/14 05:46:16;;;;;;;20.58;8.52;;;;;;;1.95;100.00;101304.31;5073511;28;20048;-70
2022/01/14 05:48:45;;;;;;;18.83;9.50;;;;;;;1.89;100.00;101301.72;5072942;28;20063;-69
2022/01/14 05:51:13;;;;;;;22.35;11.27;;;;;;;1.89;100.00;101311.38;5073583;28;20087;-69
2022/01/14 05:53:41;;;;;;;21.50;10.15;;;;;;;1.94;100.00;101304.34;5073052;28;20044;-71
2022/01/14 05:56:10;;;;;;;23.95;12.10;;;;;;;1.95;100.00;101306.09;5073543;28;20093;-68
2022/01/14 05:58:38;;;;;;;12.65;7.32;;;;;;;1.92;100.00;101301.69;5073019;28;20146;-69
2022/01/14 06:01:06;;;;;;;22.52;10.43;;;;;;;1.87;100.00;101300.00;5073117;28;20048;-69
2022/01/14 06:03:36;;;;;;;24.77;11.13;;;;;;;1.87;100.00;101297.38;5072561;28;20496;-69
2022/01/14 06:06:04;;;;;;;24.35;11.95;;;;;;;1.81;100.00;101300.03;5073225;28;20464;-68
2022/01/14 06:08:33;;;;;;;21.10;9.95;;;;;;;1.84;100.00;101302.66;5072856;28;20055;-71
2022/01/14 06:11:01;;;;;;;11.23;6.68;;;;;;;1.84;100.00;101300.03;5073166;28;20093;-67
2022/01/14 06:13:29;;;;;;;18.75;7.15;;;;;;;1.80;100.00;101307.06;5073063;28;20500;-67
2022/01/14 06:15:58;;;;;;;16.40;7.45;;;;;;;1.81;100.00;101297.41;5073024;28;20489;-66
2022/01/14 06:18:26;;;;;;;26.73;12.02;;;;;;;1.77;100.00;101298.34;5071642;28;20102;-67
2022/01/14 06:20:55;;;;;;;25.13;11.18;;;;;;;1.76;100.00;101299.22;5072843;28;20052;-66
2022/01/14 06:23:23;;;;;;;26.00;11.85;;;;;;;1.73;100.00;101295.69;5073019;28;20118;-66
2022/01/14 06:26:12;;;;;;;25.42;9.80;;;;;;;1.67;100.00;101285.25;5073227;28;20496;-66
2022/01/14 06:28:42;;;;;;;25.38;12.00;;;;;;;1.67;100.00;101282.63;5072925;28;20461;-68
2022/01/14 06:31:10;;;;;;;20.75;9.25;;;;;;;1.64;100.00;101266.88;5073085;28;20052;-67
2022/01/14 06:33:38;;;;;;;23.00;10.38;;;;;;;1.65;100.00;101287.03;5072776;28;20052;-68
2022/01/14 06:36:08;;;;;;;21.73;11.07;;;;;;;1.63;100.00;101275.63;5073215;28;20063;-67
2022/01/14 06:38:36;;;;;;;22.55;9.73;;;;;;;1.61;100.00;101277.38;5072811;28;20049;-68
2022/01/14 06:41:05;;;;;;;23.48;10.73;;;;;;;1.61;100.00;101293.16;5073075;28;20060;-68
2022/01/14 06:43:33;;;;;;;23.77;11.75;;;;;;;1.64;100.00;101285.28;5072921;28;20049;-67
2022/01/14 06:46:01;;;;;;;25.08;10.95;;;;;;;1.66;100.00;101286.13;5073093;28;20071;-67
2022/01/14 06:48:30;;;;;;;26.45;12.50;;;;;;;1.74;100.00;101280.81;5072924;28;20127;-67
2022/01/14 06:50:58;;;;;;;26.35;11.13;;;;;;;1.81;100.00;101281.63;5075466;28;20076;-67
2022/01/14 06:53:27;;;;;;;22.90;10.95;;;;;;;1.86;100.00;101275.47;5076980;28;20044;-68
2022/01/14 06:55:55;;;;;;;27.52;11.75;;;;;;;1.99;100.00;101286.75;5076758;28;20041;-67
2022/01/14 06:58:24;;;;;;;22.55;10.45;;;;;;;2.03;100.00;101275.31;5076465;28;20040;-67
2022/01/14 07:00:53;;;;;;;25.00;11.43;;;;;;;2.05;100.00;101281.44;5076194;28;20055;-68
2022/01/14 07:03:22;;;;;;;21.08;9.32;;;;;;;2.01;100.00;101274.44;5076617;28;20044;-68
2022/01/14 07:05:50;;;;;;;23.13;10.25;;;;;;;2.03;100.00;101267.44;5076260;28;20048;-67
2022/01/14 07:08:18;;;;;;;24.42;10.63;;;;;;;2.05;100.00;101260.38;5076625;28;20039;-67
2022/01/14 07:10:48;;;;;;;21.65;10.30;;;;;;;2.02;100.00;101255.13;5076443;28;20393;-69
2022/01/14 07:13:16;;;;;;;24.27;11.55;;;;;;;2.20;100.00;101249.69;5077849;28;20040;-68
2022/01/14 07:15:44;;;;;;;21.85;10.52;;;;;;;2.23;100.00;101262.84;5077728;28;20048;-68
2022/01/14 07:18:16;;;;;;;17.70;7.85;;;;;;;2.39;100.00;101244.22;5077599;28;20119;-66
2022/01/14 07:20:44;;;;;;;22.13;9.38;;;;;;;2.47;100.00;101258.19;5075967;28;20063;-65
2022/01/14 07:23:13;;;;;;;20.00;8.80;;;;;;;2.49;100.00;101253.78;5076119;28;20044;-67
2022/01/14 07:25:41;;;;;;;20.50;9.70;;;;;;;2.40;100.00;101251.25;5076198;28;20465;-68
2022/01/14 07:28:11;;;;;;;19.92;9.57;;;;;;;2.44;100.00;101252.97;5076073;28;20074;-68
2022/01/14 07:30:39;;;;;;;19.58;9.50;;;;;;;2.57;100.00;101262.47;5075797;28;20055;-75
2022/01/14 07:33:08;;;;;;;16.95;8.82;;;;;;;2.65;100.00;101257.13;5075716;28;20094;-68
2022/01/14 07:35:38;;;;;;;18.38;9.00;;;;;;;2.66;100.00;101243.91;5076620;28;20114;-67
2022/01/14 07:38:06;;;;;;;16.88;8.77;;;;;;;2.61;100.00;101247.53;5076106;28;20040;-66
2022/01/14 07:40:37;;;;;;;19.15;8.75;;;;;;;2.68;100.00;101242.13;5076257;28;20059;-65
2022/01/14 07:43:05;;;;;;;17.63;8.48;;;;;;;2.76;100.00;101236.78;5075918;28;20094;-66
2022/01/14 07:45:35;;;;;;;19.13;8.20;;;;;;;2.81;100.00;101254.28;5076005;28;20127;-66
2022/01/14 07:48:03;;;;;;;19.30;8.13;;;;;;;2.94;100.00;101248.84;5075702;28;20075;-66
2022/01/14 07:50:33;;;;;;;15.77;6.60;;;;;;;2.97;100.00;101248.81;5075870;28;20044;-66
2022/01/14 07:53:02;;;;;;;19.13;8.65;;;;;;;2.98;100.00;101240.00;5075266;28;20393;-67
2022/01/14 07:55:31;;;;;;;18.55;8.18;;;;;;;3.04;100.00;101230.25;5075974;28;20156;-67
2022/01/14 07:58:00;;;;;;;16.45;7.60;;;;;;;3.04;100.00;101253.09;5076317;28;20052;-67
2022/01/14 08:00:29;;;;;;;18.60;9.15;;;;;;;3.05;100.00;101241.66;5075445;28;20485;-66
2022/01/14 08:02:59;;;;;;;20.20;9.38;;;;;;;3.02;100.00;101236.44;5075473;28;20094;-68
2022/01/14 08:05:27;;;;;;;18.33;8.88;;;;;;;3.10;100.00;101245.13;5075578;28;20113;-68
2022/01/14 08:08:03;;;;;;;19.52;8.13;;;;;;;3.16;100.00;101245.91;5075164;28;20072;-68
2022/01/14 08:10:31;;;;;;;18.75;9.07;;;;;;;3.11;100.00;101247.75;5075653;28;20400;-67
2022/01/14 08:13:00;;;;;;;17.42;7.95;;;;;;;3.23;100.00;101246.69;5073828;28;20485;-68
2022/01/14 08:15:31;;;;;;;22.30;9.00;;;;;;;3.26;100.00;101246.63;5075451;28;20036;-68
2022/01/14 08:18:02;;;;;;;17.27;6.85;;;;;;;3.27;100.00;101237.81;5075042;28;20048;-67
2022/01/14 08:20:30;;;;;;;18.73;8.73;;;;;;;3.30;100.00;101243.06;5075370;28;20048;-67
2022/01/14 08:22:58;;;;;;;21.10;8.05;;;;;;;3.37;100.00;101234.16;5075044;28;20048;-69
2022/01/14 08:25:27;;;;;;;11.68;5.70;;;;;;;3.35;100.00;101235.94;5075280;28;20041;-68
2022/01/14 08:27:55;;;;;;;18.23;8.85;;;;;;;3.35;100.00;101219.25;5074858;28;20089;-68
2022/01/14 08:30:23;;;;;;;22.48;9.50;;;;;;;3.35;100.00;101228.03;5075088;28;20072;-68
2022/01/14 08:32:51;;;;;;;21.73;8.43;;;;;;;3.40;100.00;101220.94;5074624;28;20405;-68
2022/01/14 08:35:21;;;;;;;13.80;6.95;;;;;;;3.41;100.00;101220.06;5075048;28;20496;-68
2022/01/14 08:37:49;;;;;;;17.25;7.07;;;;;;;3.45;100.00;101216.44;5074380;28;20067;-68
2022/01/14 08:40:18;;;;;;;15.73;8.20;;;;;;;3.45;100.00;101205.91;5073888;28;20049;-68
2022/01/14 08:42:52;;;;;;;21.38;8.77;;;;;;;3.53;100.00;101210.19;5074499;28;20115;-67
2022/01/14 08:45:21;;;;;;;19.65;8.77;;;;;;;3.53;100.00;101215.47;5074886;28;20040;-68
2022/01/14 08:47:52;;;;;;;17.33;8.02;;;;;;;3.64;100.00;101210.88;5074601;28;20044;-68
2022/01/14 08:50:23;;;;;;;18.33;8.57;;;;;;;3.63;100.00;101204.75;5073685;28;20045;-68
2022/01/14 08:52:52;;;;;;;16.23;7.75;;;;;;;3.75;100.00;101193.09;5074528;28;20128;-69
2022/01/14 08:55:22;;;;;;;15.30;6.70;;;;;;;3.80;100.00;101190.41;5074659;28;20049;-67
2022/01/14 08:57:51;;;;;;;16.63;7.70;;;;;;;3.85;100.00;101186.75;5074363;28;20445;-68
2022/01/14 09:00:22;;;;;;;16.40;7.82;;;;;;;3.86;100.00;101180.63;5074454;28;20086;-68
2022/01/14 09:02:51;;;;;;;16.27;8.10;;;;;;;3.95;100.00;101177.78;5074055;28;20041;-67
2022/01/14 09:05:20;;;;;;;15.18;7.40;;;;;;;4.05;100.00;101186.41;5074168;28;20051;-68
2022/01/14 09:07:50;;;;;;;16.05;7.43;;;;;;;4.16;100.00;101175.66;5073887;28;20059;-69
2022/01/14 09:10:19;;;;;;;13.13;6.18;;;;;;;4.27;100.00;101166.63;5074019;28;20489;-67
2022/01/14 09:12:48;;;;;;;18.92;7.93;;;;;;;4.30;100.00;101161.28;5073544;28;20105;-77
2022/01/14 09:15:17;;;;;;;17.17;6.85;;;;;;;4.33;100.00;101186.75;5074144;28;20049;-68
2022/01/14 09:17:45;;;;;;;15.98;6.85;;;;;;;4.37;100.00;101179.66;5074121;28;20042;-67
2022/01/14 09:20:14;;;;;;;13.80;5.78;;;;;;;4.42;100.00;101156.63;5073917;28;20102;-68
2022/01/14 09:22:47;;;;;;;13.38;6.43;;;;;;;4.51;100.00;101148.53;5074052;28;20553;-68
2022/01/14 09:25:19;;;;;;;12.77;5.88;;;;;;;4.55;100.00;101145.81;5074209;28;20475;-68
2022/01/14 09:27:50;;;;;;;10.82;5.60;;;;;;;4.58;100.00;101140.44;5073833;28;20120;-68
2022/01/14 09:30:20;;;;;;;12.30;5.38;;;;;;;4.67;100.00;101146.44;5073860;28;20051;-67
2022/01/14 09:32:48;;;;;;;13.48;5.25;;;;;;;4.73;100.00;101148.94;5073700;28;20044;-68
2022/01/14 09:35:17;;;;;;;14.70;6.35;;;;;;;4.74;100.00;101153.34;5073689;28;20053;-67
2022/01/14 09:37:50;;;;;;;11.70;5.68;;;;;;;4.79;100.00;101168.19;5073885;28;20044;-68
2022/01/14 09:40:24;;;;;;;12.10;5.13;;;;;;;4.82;100.00;101181.31;5073529;28;20068;-68
2022/01/14 09:42:59;;;;;;;13.95;6.78;;;;;;;4.82;100.00;101176.03;5073689;28;20040;-68
2022/01/14 09:45:51;;;;;;;12.90;5.30;;;;;;;4.83;100.00;101171.66;5073516;28;20116;-68
2022/01/14 09:48:19;;;;;;;11.80;5.55;;;;;;;4.78;100.00;101160.28;5073515;28;20113;-68
2022/01/14 09:50:47;;;;;;;11.88;6.07;;;;;;;4.75;100.00;101157.72;5073523;28;20106;-68
2022/01/14 09:53:17;;;;;;;12.70;6.82;;;;;;;4.72;100.00;101160.41;5073436;28;20043;-68
2022/01/14 09:55:46;;;;;;;14.70;6.88;;;;;;;4.75;100.00;101155.94;5073511;28;20135;-67
2022/01/14 09:58:15;;;;;;;15.50;6.07;;;;;;;4.83;100.00;101161.06;5073169;28;20040;-68
2022/01/14 10:00:44;;;;;;;12.85;6.03;;;;;;;4.89;100.00;101166.19;5073313;28;20044;-68
2022/01/14 10:03:21;;;;;;;13.70;6.35;;;;;;;4.95;100.00;101152.00;5073262;28;20393;-68
2022/01/14 10:05:51;;;;;;;15.00;6.28;;;;;;;4.96;100.00;101161.66;5072029;28;20056;-68
2022/01/14 10:08:23;;;;;;;10.18;4.80;;;;;;;4.96;100.00;101151.06;5073124;28;20040;-68
2022/01/14 10:10:56;;;;;;;11.10;5.57;;;;;;;4.93;100.00;101141.44;5073441;28;20072;-69
2022/01/14 10:13:26;;;;;;;12.20;4.05;;;;;;;4.98;99.68;101128.97;5073092;28;20051;-68
2022/01/14 10:16:00;;;;;;;9.68;4.53;;;;;;;4.97;99.32;101142.25;5073061;28;20366;-69
2022/01/14 10:18:30;;;;;;;14.65;6.53;;;;;;;4.95;99.43;101131.69;5073203;28;20036;-68
2022/01/14 10:21:03;;;;;;;11.77;5.80;;;;;;;4.97;99.26;101127.25;5073049;28;20037;-69
2022/01/14 10:23:42;;;;;;;14.18;6.65;;;;;;;4.99;99.15;101114.84;5073296;28;20040;-67
2022/01/14 10:26:14;;;;;;;12.07;5.78;;;;;;;5.14;98.21;101114.50;5072564;28;20044;-67
2022/01/14 10:28:45;;;;;;;13.20;6.00;;;;;;;5.11;97.11;101111.91;5073313;28;20040;-67
2022/01/14 10:31:14;;;;;;;13.27;5.95;;;;;;;5.17;96.50;101116.19;5072764;28;20053;-68
2022/01/14 10:33:42;;;;;;;14.70;5.45;;;;;;;5.23;96.14;101109.91;5071532;28;20059;-68
2022/01/14 10:36:20;;;;;;;14.98;5.68;;;;;;;5.24;96.08;101098.41;5072972;28;20048;-68
2022/01/14 10:38:48;;;;;;;12.25;5.45;;;;;;;5.34;95.14;101094.63;5073132;28;20040;-68
2022/01/14 10:41:19;;;;;;;12.50;6.15;;;;;;;5.31;94.61;101085.00;5072841;28;20044;-69
2022/01/14 10:43:49;;;;;;;11.25;5.75;;;;;;;5.35;94.04;101091.94;5073144;28;20040;-68
2022/01/14 10:46:17;;;;;;;11.15;5.28;;;;;;;5.37;93.76;101062.78;5072835;28;20045;-68
2022/01/14 10:48:47;;;;;;;12.23;5.25;;;;;;;5.37;93.56;101068.06;5072716;28;20045;-68
2022/01/14 10:51:18;;;;;;;13.77;6.43;;;;;;;5.38;94.11;101038.06;5072994;28;20091;-69
2022/01/14 10:53:52;;;;;;;16.17;6.25;;;;;;;5.40;94.01;101041.53;5072776;28;20040;-69
2022/01/14 10:56:25;;;;;;;12.57;6.07;;;;;;;5.38;94.07;101040.72;5073034;28;20363;-68
2022/01/14 10:58:58;;;;;;;11.60;5.43;;;;;;;5.42;93.99;101047.69;5072958;28;20052;-68
2022/01/14 11:01:28;;;;;;;18.52;6.65;;;;;;;5.41;94.09;101028.28;5072907;28;20461;-68
2022/01/14 11:04:01;;;;;;;15.80;6.35;;;;;;;5.42;94.12;101018.56;5072637;28;20041;-68
2022/01/14 11:06:32;;;;;;;14.32;6.35;;;;;;;5.45;94.29;100997.31;5072679;28;20047;-68
2022/01/14 11:09:04;;;;;;;23.25;6.88;;;;;;;5.47;94.50;101014.00;5072703;28;20045;-68
2022/01/14 11:11:36;;;;;;;14.27;6.07;;;;;;;5.42;94.81;101013.28;5072732;28;20119;-68
2022/01/14 11:14:06;;;;;;;18.23;6.70;;;;;;;5.38;95.65;100993.09;5072549;28;20361;-69
2022/01/14 11:16:35;;;;;;;14.38;5.38;;;;;;;5.46;95.36;100999.03;5072686;28;20048;-68
2022/01/14 11:19:07;;;;;;;15.40;6.80;;;;;;;5.44;95.81;100991.16;5072611;28;20040;-67
2022/01/14 11:24:25;;;;;;;14.38;6.65;;;;;;;5.42;95.78;100981.53;5072777;28;20063;-68
2022/01/14 11:27:06;;;;;;;14.85;5.65;;;;;;;5.47;95.76;100995.47;5072373;28;20500;-67
2022/01/14 11:29:36;;;;;;;13.82;5.93;;;;;;;5.44;95.88;100979.69;5072637;28;20055;-67
2022/01/14 11:32:07;;;;;;;12.15;5.40;;;;;;;5.52;95.79;100977.72;5070800;28;20527;-69
2022/01/14 11:34:40;;;;;;;12.75;5.53;;;;;;;5.57;95.85;100965.22;5072344;28;20111;-69
2022/01/14 11:37:10;;;;;;;13.07;6.70;;;;;;;5.59;95.56;100978.38;5075156;28;20488;-69
2022/01/14 11:39:40;;;;;;;12.90;6.50;;;;;;;5.57;95.91;100986.38;5076214;28;20454;-67
2022/01/14 11:42:13;;;;;;;12.43;5.70;;;;;;;5.55;96.15;100974.97;5076090;28;20046;-68